createdAt,value
2023-03-27T00:00:13.507Z,7.17
2023-03-27T00:01:17.954Z,7.14
2023-03-27T00:02:20.511Z,7.13
2023-03-27T00:03:24.754Z,7.10
2023-03-27T00:04:27.141Z,7.10
2023-03-27T00:05:29.315Z,7.06
2023-03-27T00:06:31.874Z,7.05
2023-03-27T00:07:34.104Z,7.07
2023-03-27T00:08:36.889Z,7.08
2023-03-27T00:09:39.445Z,7.10
2023-03-27T00:10:41.574Z,7.12
2023-03-27T00:11:43.869Z,7.15
2023-03-27T00:12:46.675Z,7.14
2023-03-27T00:13:50.197Z,7.18
2023-03-27T00:14:52.842Z,7.18
2023-03-27T00:15:56.817Z,7.18
2023-03-27T00:16:59.108Z,7.20
2023-03-27T00:18:01.890Z,7.23
2023-03-27T00:19:04.405Z,7.27
2023-03-27T00:20:06.972Z,7.27
2023-03-27T00:21:09.244Z,7.28
2023-03-27T00:22:11.786Z,7.28
2023-03-27T00:23:13.899Z,7.26
2023-03-27T00:24:16.514Z,7.26
2023-03-27T00:25:18.973Z,7.23
2023-03-27T00:26:21.987Z,7.17
2023-03-27T00:27:24.331Z,7.19
2023-03-27T00:28:28.765Z,7.18
2023-03-27T00:29:31.497Z,7.08
2023-03-27T00:30:34.914Z,7.10
2023-03-27T00:31:37.234Z,7.12
2023-03-27T00:32:40.256Z,7.12
2023-03-27T00:33:42.723Z,7.11
2023-03-27T00:34:45.466Z,7.09
2023-03-27T00:35:49.815Z,7.10
2023-03-27T00:36:52.438Z,7.08
2023-03-27T00:37:55.300Z,7.06
2023-03-27T00:38:57.639Z,7.03
2023-03-27T00:40:00.233Z,6.98
2023-03-27T00:41:02.576Z,6.99
2023-03-27T00:42:05.002Z,6.98
2023-03-27T00:43:25.858Z,6.98
2023-03-27T00:44:31.172Z,6.95
2023-03-27T00:45:33.887Z,6.93
2023-03-27T00:46:42.798Z,6.94
2023-03-27T00:47:48.390Z,6.93
2023-03-27T00:48:54.827Z,6.96
2023-03-27T00:49:59.914Z,6.97
2023-03-27T00:51:04.184Z,6.96
2023-03-27T00:52:07.520Z,7.00
2023-03-27T00:53:13.296Z,7.00
2023-03-27T00:54:18.592Z,7.01
2023-03-27T00:55:24.793Z,7.01
2023-03-27T00:56:28.003Z,7.03
2023-03-27T00:57:33.498Z,7.02
2023-03-27T00:59:54.545Z,7.20
2023-03-27T01:00:57.560Z,7.02
2023-03-27T01:02:03.182Z,7.04
2023-03-27T01:03:08.319Z,7.06
2023-03-27T01:04:10.771Z,7.09
2023-03-27T01:05:13.171Z,7.12
2023-03-27T01:06:16.743Z,7.09
2023-03-27T01:07:20.896Z,7.09
2023-03-27T01:08:24.919Z,7.05
2023-03-27T01:09:27.200Z,7.04
2023-03-27T01:12:01.516Z,7.17
2023-03-27T01:13:21.164Z,6.92
2023-03-27T01:14:33.272Z,6.96
2023-03-27T01:15:42.105Z,6.97
2023-03-27T01:16:57.279Z,6.99
2023-03-27T01:18:18.253Z,6.99
2023-03-27T01:19:42.111Z,7.00
2023-03-27T01:20:57.582Z,7.05
2023-03-27T01:22:17.589Z,7.07
2023-03-27T01:24:00.596Z,7.09
2023-03-27T01:25:11.214Z,7.10
2023-03-27T01:26:43.135Z,7.06
2023-03-27T01:27:55.184Z,7.08
2023-03-27T01:29:33.297Z,7.10
2023-03-27T01:31:00.309Z,7.08
2023-03-27T01:32:36.127Z,7.05
2023-03-27T01:33:56.683Z,7.02
2023-03-27T01:35:18.099Z,6.99
2023-03-27T01:36:42.980Z,6.97
2023-03-27T01:39:28.432Z,7.03
2023-03-27T01:40:37.788Z,6.89
2023-03-27T01:43:12.127Z,7.01
2023-03-27T01:44:20.956Z,6.87
2023-03-27T01:45:38.605Z,6.88
2023-03-27T01:48:18.873Z,7.02
2023-03-27T01:49:24.771Z,6.90
2023-03-27T01:50:40.466Z,6.93
2023-03-27T01:53:20.541Z,7.13
2023-03-27T01:54:32.089Z,7.02
2023-03-27T01:55:37.985Z,7.04
2023-03-27T01:56:49.967Z,7.04
2023-03-27T01:58:04.815Z,7.09
2023-03-27T01:59:11.196Z,7.06
2023-03-27T02:00:19.619Z,7.07
2023-03-27T02:01:25.261Z,7.10
2023-03-27T02:02:32.757Z,7.09
2023-03-27T02:03:50.824Z,7.04
2023-03-27T02:04:56.835Z,7.05
2023-03-27T02:06:02.910Z,7.05
2023-03-27T02:07:10.232Z,7.02
2023-03-27T02:09:37.763Z,7.05
2023-03-27T02:10:43.637Z,6.91
2023-03-27T02:12:00.610Z,6.90
2023-03-27T02:13:09.527Z,6.91
2023-03-27T02:14:19.154Z,6.91
2023-03-27T02:16:41.383Z,7.01
2023-03-27T02:17:53.278Z,6.88
2023-03-27T02:18:59.479Z,6.87
2023-03-27T02:20:08.553Z,6.87
2023-03-27T02:21:11.100Z,6.87
2023-03-27T02:22:14.544Z,6.89
2023-03-27T02:23:18.889Z,6.89
2023-03-27T02:24:21.306Z,6.87
2023-03-27T02:25:28.360Z,6.90
2023-03-27T02:26:32.674Z,6.91
2023-03-27T02:27:44.117Z,6.95
2023-03-27T02:30:24.529Z,7.10
2023-03-27T02:31:45.299Z,6.96
2023-03-27T02:32:58.823Z,6.97
2023-03-27T02:34:23.138Z,7.02
2023-03-27T02:36:56.737Z,7.16
2023-03-27T02:38:19.972Z,7.01
2023-03-27T02:39:37.100Z,7.02
2023-03-27T02:40:55.249Z,6.95
2023-03-27T02:44:56.987Z,6.94
2023-03-27T02:47:16.330Z,6.87
2023-03-27T02:48:22.615Z,6.61
2023-03-27T02:49:37.454Z,6.61
2023-03-27T02:50:49.728Z,6.62
2023-03-27T02:52:11.106Z,6.63
2023-03-27T02:53:17.040Z,6.65
2023-03-27T02:55:36.817Z,6.73
2023-03-27T02:56:43.311Z,6.55
2023-03-27T02:57:52.059Z,6.55
2023-03-27T02:59:11.694Z,6.59
2023-03-27T03:00:18.220Z,6.63
2023-03-27T03:01:24.398Z,6.68
2023-03-27T03:02:34.197Z,6.70
2023-03-27T03:05:06.373Z,6.88
2023-03-27T03:06:13.517Z,6.75
2023-03-27T03:07:15.809Z,6.78
2023-03-27T03:08:18.233Z,6.80
2023-03-27T03:09:21.008Z,6.81
2023-03-27T03:10:24.509Z,6.80
2023-03-27T03:11:27.715Z,6.80
2023-03-27T03:12:29.974Z,6.79
2023-03-27T03:13:32.428Z,6.78
2023-03-27T03:14:38.044Z,6.81
2023-03-27T03:15:40.278Z,6.86
2023-03-27T03:16:42.621Z,6.83
2023-03-27T03:17:45.721Z,6.79
2023-03-27T03:18:49.337Z,6.81
2023-03-27T03:19:51.752Z,6.80
2023-03-27T03:20:55.016Z,6.77
2023-03-27T03:21:57.593Z,6.78
2023-03-27T03:22:59.652Z,6.77
2023-03-27T03:24:02.306Z,6.76
2023-03-27T03:25:07.163Z,6.76
2023-03-27T03:26:10.341Z,6.73
2023-03-27T03:27:17.155Z,6.67
2023-03-27T03:28:21.717Z,6.69
2023-03-27T03:29:24.346Z,6.66
2023-03-27T03:30:28.709Z,6.66
2023-03-27T03:31:32.861Z,6.63
2023-03-27T03:32:35.767Z,6.66
2023-03-27T03:33:39.918Z,6.61
2023-03-27T03:34:42.201Z,6.63
2023-03-27T03:35:51.328Z,6.64
2023-03-27T03:36:55.831Z,6.65
2023-03-27T03:37:59.948Z,6.65
2023-03-27T03:39:03.989Z,6.56
2023-03-27T03:40:08.722Z,6.57
2023-03-27T03:41:11.819Z,6.58
2023-03-27T03:42:22.888Z,6.57
2023-03-27T03:43:19.926Z,6.60
2023-03-27T03:44:22.055Z,6.61
2023-03-27T03:45:25.055Z,6.59
2023-03-27T03:46:27.469Z,6.58
2023-03-27T03:47:29.698Z,6.58
2023-03-27T03:48:32.009Z,6.57
2023-03-27T03:49:34.299Z,6.56
2023-03-27T03:50:36.509Z,6.54
2023-03-27T03:51:38.805Z,6.54
2023-03-27T03:52:42.364Z,6.52
2023-03-27T03:53:44.705Z,6.53
2023-03-27T03:54:47.054Z,6.53
2023-03-27T03:55:51.651Z,6.51
2023-03-27T03:56:54.788Z,6.51
2023-03-27T03:57:57.257Z,6.52
2023-03-27T03:59:01.635Z,6.54
2023-03-27T04:01:16.966Z,6.65
2023-03-27T04:02:21.638Z,6.53
2023-03-27T04:03:24.460Z,6.52
2023-03-27T04:04:28.564Z,6.55
2023-03-27T04:05:33.094Z,6.56
2023-03-27T04:06:35.750Z,6.58
2023-03-27T04:07:39.879Z,6.57
2023-03-27T04:08:53.107Z,6.59
2023-03-27T04:09:57.968Z,6.62
2023-03-27T04:11:02.095Z,6.61
2023-03-27T04:12:21.302Z,6.64
2023-03-27T04:13:25.794Z,6.65
2023-03-27T04:14:30.023Z,6.64
2023-03-27T04:15:32.940Z,6.66
2023-03-27T04:16:37.999Z,6.69
2023-03-27T04:17:43.353Z,6.74
2023-03-27T04:18:45.887Z,6.76
2023-03-27T04:19:49.888Z,6.78
2023-03-27T04:20:54.383Z,6.77
2023-03-27T04:21:58.766Z,6.79
2023-03-27T04:23:03.626Z,6.81
2023-03-27T04:24:06.618Z,6.83
2023-03-27T04:25:10.659Z,6.81
2023-03-27T04:26:13.198Z,6.81
2023-03-27T04:28:28.116Z,7.00
2023-03-27T04:29:32.179Z,6.89
2023-03-27T04:30:34.759Z,6.93
2023-03-27T04:31:56.272Z,6.91
2023-03-27T04:33:16.865Z,6.96
2023-03-27T04:35:31.274Z,7.10
2023-03-27T04:36:35.424Z,6.93
2023-03-27T04:37:41.132Z,6.96
2023-03-27T04:38:45.639Z,6.96
2023-03-27T04:39:50.881Z,6.96
2023-03-27T04:40:54.978Z,6.93
2023-03-27T04:41:58.537Z,6.95
2023-03-27T04:43:02.670Z,6.98
2023-03-27T04:44:06.776Z,6.98
2023-03-27T04:45:12.858Z,7.00
2023-03-27T04:46:16.940Z,7.01
2023-03-27T04:47:19.638Z,7.00
2023-03-27T04:48:23.055Z,7.03
2023-03-27T04:49:28.673Z,7.04
2023-03-27T04:50:32.922Z,7.06
2023-03-27T04:51:35.230Z,7.08
2023-03-27T04:52:38.023Z,7.09
2023-03-27T04:53:40.851Z,7.12
2023-03-27T04:54:43.419Z,7.10
2023-03-27T04:55:47.342Z,7.13
2023-03-27T04:56:50.153Z,7.13
2023-03-27T04:57:55.896Z,7.13
2023-03-27T04:58:58.106Z,7.10
2023-03-27T05:00:02.264Z,7.10
2023-03-27T05:02:18.941Z,7.17
2023-03-27T05:03:23.426Z,7.03
2023-03-27T05:04:37.042Z,7.05
2023-03-27T05:05:41.207Z,7.06
2023-03-27T05:06:43.863Z,7.06
2023-03-27T05:07:49.128Z,7.08
2023-03-27T05:08:56.446Z,7.12
2023-03-27T05:10:00.576Z,7.14
2023-03-27T05:11:03.428Z,7.16
2023-03-27T05:12:07.556Z,7.19
2023-03-27T05:13:12.305Z,7.22
2023-03-27T05:14:16.505Z,7.24
2023-03-27T05:15:20.938Z,7.28
2023-03-27T05:16:23.639Z,7.30
2023-03-27T05:17:27.673Z,7.33
2023-03-27T05:18:30.814Z,7.35
2023-03-27T05:19:33.766Z,7.35
2023-03-27T05:20:36.845Z,7.35
2023-03-27T05:21:41.357Z,7.35
2023-03-27T05:22:45.927Z,7.37
2023-03-27T05:24:05.625Z,7.38
2023-03-27T05:25:08.583Z,7.39
2023-03-27T05:26:12.237Z,7.39
2023-03-27T05:27:22.132Z,7.38
2023-03-27T05:28:26.787Z,7.37
2023-03-27T05:29:29.084Z,7.36
2023-03-27T05:30:33.251Z,7.36
2023-03-27T05:31:43.394Z,7.35
2023-03-27T05:33:05.224Z,7.32
2023-03-27T05:34:07.531Z,7.34
2023-03-27T05:35:11.384Z,7.33
2023-03-27T05:36:15.606Z,7.35
2023-03-27T05:37:17.882Z,7.33
2023-03-27T05:38:22.211Z,7.34
2023-03-27T05:39:43.211Z,7.36
2023-03-27T05:40:45.647Z,7.39
2023-03-27T05:41:50.596Z,7.43
2023-03-27T05:42:55.898Z,7.44
2023-03-27T05:44:00.416Z,7.48
2023-03-27T05:45:05.058Z,7.52
2023-03-27T05:46:07.647Z,7.55
2023-03-27T05:47:11.556Z,7.61
2023-03-27T05:48:14.392Z,7.67
2023-03-27T05:49:17.398Z,7.70
2023-03-27T05:51:35.181Z,7.91
2023-03-27T05:52:37.446Z,7.83
2023-03-27T05:53:39.840Z,7.88
2023-03-27T05:54:52.747Z,7.91
2023-03-27T05:56:03.093Z,7.96
2023-03-27T05:56:59.401Z,7.98
2023-03-27T05:58:02.963Z,8.00
2023-03-27T05:59:05.328Z,7.99
2023-03-27T06:00:13.094Z,7.98
2023-03-27T06:01:17.345Z,7.99
2023-03-27T06:02:21.455Z,7.98
2023-03-27T06:03:31.660Z,8.00
2023-03-27T06:04:37.058Z,8.01
2023-03-27T06:05:43.730Z,8.03
2023-03-27T06:06:47.407Z,8.04
2023-03-27T06:07:50.382Z,8.04
2023-03-27T06:08:53.019Z,8.04
2023-03-27T06:09:55.857Z,8.06
2023-03-27T06:11:11.969Z,8.05
2023-03-27T06:12:18.811Z,8.07
2023-03-27T06:13:22.632Z,8.06
2023-03-27T06:14:26.942Z,8.08
2023-03-27T06:15:46.772Z,8.10
2023-03-27T06:16:54.196Z,8.13
2023-03-27T06:18:15.989Z,8.16
2023-03-27T06:19:18.831Z,8.20
2023-03-27T06:20:25.079Z,8.23
2023-03-27T06:21:28.706Z,8.25
2023-03-27T06:23:46.459Z,8.36
2023-03-27T06:24:49.535Z,8.25
2023-03-27T06:25:53.741Z,8.27
2023-03-27T06:26:58.149Z,8.29
2023-03-27T06:28:04.619Z,8.32
2023-03-27T06:29:09.937Z,8.35
2023-03-27T06:30:19.225Z,8.38
2023-03-27T06:31:23.708Z,8.41
2023-03-27T06:32:32.700Z,8.44
2023-03-27T06:33:35.013Z,8.47
2023-03-27T06:34:39.121Z,8.51
2023-03-27T06:35:52.936Z,8.55
2023-03-27T06:36:54.309Z,8.57
2023-03-27T06:37:57.096Z,8.58
2023-03-27T06:38:59.670Z,8.59
2023-03-27T06:40:03.912Z,8.62
2023-03-27T06:41:06.598Z,8.62
2023-03-27T06:43:27.525Z,8.80
2023-03-27T06:44:37.480Z,8.74
2023-03-27T06:45:53.668Z,8.76
2023-03-27T06:47:02.687Z,8.79
2023-03-27T06:48:16.955Z,8.81
2023-03-27T06:49:13.141Z,8.84
2023-03-27T06:50:16.952Z,8.86
2023-03-27T06:51:19.604Z,8.90
2023-03-27T06:52:22.546Z,8.93
2023-03-27T06:53:28.222Z,8.94
2023-03-27T06:54:29.567Z,9.00
2023-03-27T06:55:34.004Z,9.03
2023-03-27T06:56:37.709Z,9.06
2023-03-27T06:57:56.576Z,9.10
2023-03-27T06:58:59.036Z,9.13
2023-03-27T07:00:04.108Z,9.15
2023-03-27T07:01:13.937Z,9.17
2023-03-27T07:02:26.624Z,9.20
2023-03-27T07:03:47.941Z,9.21
2023-03-27T07:05:08.799Z,9.24
2023-03-27T07:06:13.271Z,9.27
2023-03-27T07:07:17.498Z,9.28
2023-03-27T07:08:25.196Z,9.30
2023-03-27T07:09:26.833Z,9.31
2023-03-27T07:10:34.932Z,9.32
2023-03-27T07:11:37.197Z,9.33
2023-03-27T07:12:45.685Z,9.36
2023-03-27T07:13:49.729Z,9.39
2023-03-27T07:14:53.819Z,9.43
2023-03-27T07:15:57.902Z,9.46
2023-03-27T07:17:00.530Z,9.48
2023-03-27T07:18:07.472Z,9.52
2023-03-27T07:19:10.378Z,9.56
2023-03-27T07:20:15.320Z,9.60
2023-03-27T07:21:17.511Z,9.62
2023-03-27T07:22:20.758Z,9.65
2023-03-27T07:23:23.658Z,9.68
2023-03-27T07:24:39.993Z,9.71
2023-03-27T07:25:43.025Z,9.75
2023-03-27T07:26:47.377Z,9.78
2023-03-27T07:27:51.877Z,9.83
2023-03-27T07:28:54.158Z,9.87
2023-03-27T07:29:57.767Z,9.90
2023-03-27T07:32:36.137Z,10.09
2023-03-27T07:33:28.709Z,10.02
2023-03-27T07:34:33.563Z,10.06
2023-03-27T07:36:53.471Z,10.21
2023-03-27T07:37:57.509Z,10.14
2023-03-27T07:39:11.765Z,10.18
2023-03-27T07:40:14.362Z,10.25
2023-03-27T07:41:20.519Z,10.28
2023-03-27T07:42:34.921Z,10.31
2023-03-27T07:43:39.785Z,10.35
2023-03-27T07:44:42.907Z,10.38
2023-03-27T07:45:45.081Z,10.43
2023-03-27T07:46:47.501Z,10.45
2023-03-27T07:47:50.037Z,10.50
2023-03-27T07:48:52.414Z,10.54
2023-03-27T07:49:56.851Z,10.57
2023-03-27T07:51:10.859Z,10.61
2023-03-27T07:52:05.192Z,10.67
2023-03-27T07:53:09.305Z,10.69
2023-03-27T07:54:13.512Z,10.73
2023-03-27T07:55:17.724Z,10.75
2023-03-27T07:56:22.549Z,10.78
2023-03-27T07:57:26.802Z,10.79
2023-03-27T07:58:31.493Z,10.82
2023-03-27T07:59:34.385Z,10.85
2023-03-27T08:00:39.324Z,10.88
2023-03-27T08:01:47.024Z,10.91
2023-03-27T08:02:50.166Z,10.95
2023-03-27T08:03:52.807Z,10.98
2023-03-27T08:04:55.997Z,11.00
2023-03-27T08:06:00.333Z,11.04
2023-03-27T08:07:04.598Z,11.08
2023-03-27T08:08:07.203Z,11.11
2023-03-27T08:09:23.465Z,11.13
2023-03-27T08:10:27.523Z,11.17
2023-03-27T08:11:32.434Z,11.21
2023-03-27T08:12:35.490Z,11.24
2023-03-27T08:13:38.134Z,11.29
2023-03-27T08:14:42.202Z,11.32
2023-03-27T08:15:46.359Z,11.37
2023-03-27T08:17:05.191Z,11.41
2023-03-27T08:18:01.781Z,11.45
2023-03-27T08:19:05.400Z,11.50
2023-03-27T08:20:10.065Z,11.55
2023-03-27T08:21:14.241Z,11.59
2023-03-27T08:22:18.459Z,11.62
2023-03-27T08:23:22.712Z,11.66
2023-03-27T08:24:44.131Z,11.69
2023-03-27T08:25:51.276Z,11.71
2023-03-27T08:26:54.965Z,11.75
2023-03-27T08:27:58.868Z,11.78
2023-03-27T08:29:01.861Z,11.79
2023-03-27T08:30:07.026Z,11.82
2023-03-27T08:31:16.203Z,11.86
2023-03-27T08:32:21.689Z,11.90
2023-03-27T08:33:25.700Z,11.94
2023-03-27T08:34:28.378Z,11.96
2023-03-27T08:35:31.135Z,11.96
2023-03-27T08:36:33.625Z,11.97
2023-03-27T08:37:37.795Z,11.96
2023-03-27T08:38:59.646Z,11.95
2023-03-27T08:41:31.473Z,12.07
2023-03-27T08:42:42.218Z,11.96
2023-03-27T08:43:46.732Z,11.98
2023-03-27T08:44:53.149Z,11.98
2023-03-27T08:46:06.955Z,12.00
2023-03-27T08:47:14.607Z,12.00
2023-03-27T08:48:53.978Z,12.02
2023-03-27T08:49:58.964Z,12.06
2023-03-27T08:51:15.393Z,12.13
2023-03-27T08:54:04.029Z,12.37
2023-03-27T08:55:20.045Z,12.37
2023-03-27T08:56:26.646Z,12.44
2023-03-27T08:57:31.816Z,12.51
2023-03-27T08:58:36.341Z,12.56
2023-03-27T08:59:56.321Z,12.61
2023-03-27T09:02:46.378Z,12.83
2023-03-27T09:04:11.406Z,12.79
2023-03-27T09:05:25.495Z,12.82
2023-03-27T09:06:37.315Z,12.83
2023-03-27T09:07:46.813Z,12.83
2023-03-27T09:09:10.298Z,12.80
2023-03-27T09:10:33.248Z,12.78
2023-03-27T09:11:50.720Z,12.78
2023-03-27T09:13:06.083Z,12.81
2023-03-27T09:16:43.529Z,13.04
2023-03-27T09:19:10.209Z,13.14
2023-03-27T09:21:41.467Z,13.27
2023-03-27T09:22:49.141Z,13.22
2023-03-27T09:23:56.314Z,13.26
2023-03-27T09:25:20.759Z,13.31
2023-03-27T09:26:42.406Z,13.32
2023-03-27T09:28:02.423Z,13.28
2023-03-27T09:29:24.534Z,13.24
2023-03-27T09:30:33.528Z,13.17
2023-03-27T09:31:43.740Z,13.11
2023-03-27T09:32:49.312Z,13.05
2023-03-27T09:33:52.274Z,13.01
2023-03-27T09:34:55.050Z,12.97
2023-03-27T09:35:58.227Z,12.95
2023-03-27T09:37:01.138Z,12.94
2023-03-27T09:38:20.316Z,12.96
2023-03-27T09:39:32.825Z,12.99
2023-03-27T09:40:59.121Z,13.03
2023-03-27T09:42:09.013Z,13.09
2023-03-27T09:43:23.732Z,13.14
2023-03-27T09:44:31.805Z,13.20
2023-03-27T09:45:37.725Z,13.26
2023-03-27T09:46:46.018Z,13.27
2023-03-27T09:49:17.258Z,13.34
2023-03-27T09:50:33.947Z,13.22
2023-03-27T09:53:17.835Z,13.28
2023-03-27T09:54:26.107Z,13.18
2023-03-27T09:55:30.862Z,13.16
2023-03-27T09:57:50.292Z,13.26
2023-03-27T09:58:53.003Z,13.17
2023-03-27T10:00:00.031Z,13.20
2023-03-27T10:01:28.866Z,13.23
2023-03-27T10:02:36.933Z,13.25
2023-03-27T10:03:52.570Z,13.26
2023-03-27T10:05:02.807Z,13.26
2023-03-27T10:06:13.208Z,13.27
2023-03-27T10:07:24.676Z,13.30
2023-03-27T10:08:44.257Z,13.34
2023-03-27T10:10:10.375Z,13.36
2023-03-27T10:11:17.705Z,13.39
2023-03-27T10:12:21.904Z,13.41
2023-03-27T10:13:28.229Z,13.45
2023-03-27T10:14:34.698Z,13.50
2023-03-27T10:15:40.133Z,13.53
2023-03-27T10:16:45.750Z,13.57
2023-03-27T10:17:48.869Z,13.59
2023-03-27T10:18:54.810Z,13.61
2023-03-27T10:20:00.948Z,13.65
2023-03-27T10:21:09.834Z,13.65
2023-03-27T10:22:25.423Z,13.67
2023-03-27T10:23:30.606Z,13.66
2023-03-27T10:24:36.310Z,13.66
2023-03-27T10:26:00.017Z,13.64
2023-03-27T10:27:06.949Z,13.60
2023-03-27T10:28:28.947Z,13.56
2023-03-27T10:29:38.966Z,13.54
2023-03-27T10:30:42.670Z,13.56
2023-03-27T10:32:04.461Z,13.57
2023-03-27T10:33:09.291Z,13.65
2023-03-27T10:34:37.897Z,13.70
2023-03-27T10:35:43.472Z,13.70
2023-03-27T10:36:55.280Z,13.67
2023-03-27T10:38:04.866Z,13.68
2023-03-27T10:40:40.068Z,13.78
2023-03-27T10:41:47.152Z,13.65
2023-03-27T10:42:51.131Z,13.62
2023-03-27T10:43:54.922Z,13.63
2023-03-27T10:44:59.667Z,13.63
2023-03-27T10:46:06.801Z,13.63
2023-03-27T10:48:43.863Z,13.73
2023-03-27T10:51:04.438Z,13.73
2023-03-27T10:52:27.257Z,13.62
2023-03-27T10:55:21.430Z,13.73
2023-03-27T10:56:46.095Z,13.63
2023-03-27T10:57:52.890Z,13.66
2023-03-27T10:59:03.890Z,13.69
2023-03-27T11:00:19.757Z,13.71
2023-03-27T11:01:27.374Z,13.70
2023-03-27T11:02:49.144Z,13.69
2023-03-27T11:04:04.679Z,13.66
2023-03-27T11:05:13.366Z,13.65
2023-03-27T11:06:20.827Z,13.62
2023-03-27T11:07:28.632Z,13.60
2023-03-27T11:10:30.269Z,13.69
2023-03-27T11:11:42.777Z,13.58
2023-03-27T11:13:00.639Z,13.60
2023-03-27T11:14:07.084Z,13.60
2023-03-27T11:15:13.561Z,13.57
2023-03-27T11:16:35.422Z,13.56
2023-03-27T11:17:59.893Z,13.55
2023-03-27T11:19:13.009Z,13.57
2023-03-27T11:23:14.918Z,13.69
2023-03-27T11:25:50.283Z,13.71
2023-03-27T11:28:44.485Z,13.77
2023-03-27T11:29:56.565Z,13.70
2023-03-27T11:31:12.181Z,13.78
2023-03-27T11:32:22.802Z,13.88
2023-03-27T11:33:50.998Z,13.94
2023-03-27T11:36:44.671Z,14.25
2023-03-27T11:37:55.040Z,14.19
2023-03-27T11:39:16.700Z,14.20
2023-03-27T11:40:24.532Z,14.16
2023-03-27T11:41:29.242Z,14.14
2023-03-27T11:43:46.383Z,14.15
2023-03-27T11:44:59.601Z,14.00
2023-03-27T11:46:25.524Z,13.99
2023-03-27T11:47:34.605Z,13.97
2023-03-27T11:49:00.148Z,13.96
2023-03-27T11:50:26.020Z,13.93
2023-03-27T11:51:56.045Z,13.90
2023-03-27T11:53:32.389Z,13.88
2023-03-27T11:56:18.582Z,13.97
2023-03-27T11:57:25.618Z,13.86
2023-03-27T11:58:42.462Z,13.86
2023-03-27T12:01:30.344Z,13.94
2023-03-27T12:02:46.622Z,13.83
2023-03-27T12:04:00.641Z,13.84
2023-03-27T12:05:21.110Z,13.85
2023-03-27T12:06:28.806Z,13.84
2023-03-27T12:07:55.736Z,13.85
2023-03-27T12:09:17.523Z,13.86
2023-03-27T12:10:31.723Z,13.90
2023-03-27T12:11:37.949Z,13.93
2023-03-27T12:13:06.627Z,13.96
2023-03-27T12:14:18.370Z,13.99
2023-03-27T12:15:34.226Z,14.02
2023-03-27T12:16:40.392Z,14.04
2023-03-27T12:18:02.320Z,14.06
2023-03-27T12:19:28.895Z,14.06
2023-03-27T12:20:53.057Z,14.04
2023-03-27T12:21:58.250Z,14.04
2023-03-27T12:23:19.253Z,14.02
2023-03-27T12:25:52.409Z,14.09
2023-03-27T12:27:22.863Z,13.97
2023-03-27T12:29:58.366Z,14.06
2023-03-27T12:31:22.909Z,13.94
2023-03-27T12:32:45.193Z,13.92
2023-03-27T12:35:34.722Z,14.00
2023-03-27T12:36:41.206Z,13.86
2023-03-27T12:38:02.217Z,13.85
2023-03-27T12:40:43.973Z,13.95
2023-03-27T12:41:48.612Z,13.84
2023-03-27T12:43:23.188Z,13.86
2023-03-27T12:44:31.722Z,13.87
2023-03-27T12:45:38.927Z,13.87
2023-03-27T12:46:41.318Z,13.89
2023-03-27T12:48:11.172Z,13.90
2023-03-27T12:49:19.228Z,13.92
2023-03-27T12:50:29.208Z,13.93
2023-03-27T12:51:47.953Z,13.93
2023-03-27T12:52:52.047Z,13.93
2023-03-27T12:53:56.169Z,13.94
2023-03-27T12:55:12.416Z,13.97
2023-03-27T12:57:47.103Z,14.07
2023-03-27T12:58:54.207Z,13.99
2023-03-27T13:00:00.083Z,13.99
2023-03-27T13:01:05.994Z,14.02
2023-03-27T13:02:19.064Z,14.03
2023-03-27T13:05:16.442Z,14.21
2023-03-27T13:06:14.350Z,14.16
2023-03-27T13:08:58.046Z,14.40
2023-03-27T13:10:38.320Z,14.33
2023-03-27T13:13:22.002Z,14.46
2023-03-27T13:14:31.991Z,14.35
2023-03-27T13:15:44.667Z,14.34
2023-03-27T13:16:54.053Z,14.32
2023-03-27T13:18:06.951Z,14.31
2023-03-27T13:19:26.943Z,14.29
2023-03-27T13:20:38.058Z,14.28
2023-03-27T13:22:00.834Z,14.27
2023-03-27T13:23:31.309Z,14.25
2023-03-27T13:24:51.890Z,14.26
2023-03-27T13:28:05.465Z,14.33
2023-03-27T13:29:24.302Z,14.20
2023-03-27T13:30:44.610Z,14.19
2023-03-27T13:32:26.701Z,14.19
2023-03-27T13:33:35.003Z,14.21
2023-03-27T13:34:41.699Z,14.20
2023-03-27T13:36:16.592Z,14.21
2023-03-27T13:37:36.844Z,14.24
2023-03-27T13:38:47.972Z,14.24
2023-03-27T13:40:00.469Z,14.25
2023-03-27T13:41:41.206Z,14.28
2023-03-27T13:42:48.895Z,14.29
2023-03-27T13:43:54.475Z,14.32
2023-03-27T13:45:08.648Z,14.33
2023-03-27T13:46:18.751Z,14.33
2023-03-27T13:47:35.835Z,14.35
2023-03-27T13:48:47.369Z,14.37
2023-03-27T13:50:22.744Z,14.37
2023-03-27T13:51:35.300Z,14.35
2023-03-27T13:52:44.690Z,14.34
2023-03-27T13:54:10.022Z,14.35
2023-03-27T13:55:20.846Z,14.37
2023-03-27T13:57:07.239Z,14.41
2023-03-27T13:58:41.249Z,14.42
2023-03-27T14:00:05.578Z,14.41
2023-03-27T14:01:57.136Z,14.41
2023-03-27T14:05:10.502Z,14.54
2023-03-27T14:06:17.923Z,14.44
2023-03-27T14:07:33.654Z,14.45
2023-03-27T14:10:52.665Z,14.53
2023-03-27T14:12:29.146Z,14.39
2023-03-27T14:13:56.366Z,14.38
2023-03-27T14:15:19.798Z,14.39
2023-03-27T14:16:33.468Z,14.39
2023-03-27T14:19:25.364Z,14.46
2023-03-27T14:20:31.571Z,14.33
2023-03-27T14:21:53.376Z,14.33
2023-03-27T14:23:08.714Z,14.36
2023-03-27T14:24:26.015Z,14.39
2023-03-27T14:25:33.663Z,14.39
2023-03-27T14:26:41.232Z,14.41
2023-03-27T14:27:51.838Z,14.42
2023-03-27T14:31:36.945Z,14.50
2023-03-27T14:32:44.729Z,14.37
2023-03-27T14:34:08.636Z,14.37
2023-03-27T14:35:37.603Z,14.36
2023-03-27T14:36:42.196Z,14.37
2023-03-27T14:39:22.533Z,14.46
2023-03-27T14:40:35.657Z,14.32
2023-03-27T14:41:48.271Z,14.31
2023-03-27T14:42:51.319Z,14.29
2023-03-27T14:43:58.405Z,14.27
2023-03-27T14:45:19.372Z,14.26
2023-03-27T14:46:24.126Z,14.25
2023-03-27T14:47:27.959Z,14.23
2023-03-27T14:49:46.992Z,14.31
2023-03-27T14:50:54.037Z,14.19
2023-03-27T14:52:00.020Z,14.22
2023-03-27T14:53:19.781Z,14.22
2023-03-27T14:54:54.394Z,14.25
2023-03-27T14:55:47.781Z,14.28
2023-03-27T14:56:59.882Z,14.29
2023-03-27T14:58:11.470Z,14.32
2023-03-27T15:00:32.751Z,14.44
2023-03-27T15:01:35.153Z,14.32
2023-03-27T15:02:39.042Z,14.30
2023-03-27T15:03:46.896Z,14.32
2023-03-27T15:04:49.597Z,14.32
2023-03-27T15:06:07.578Z,14.32
2023-03-27T15:07:23.217Z,14.32
2023-03-27T15:08:45.836Z,14.31
2023-03-27T15:12:36.452Z,14.31
2023-03-27T15:13:39.576Z,14.16
2023-03-27T15:14:43.778Z,14.13
2023-03-27T15:15:48.093Z,14.11
2023-03-27T15:17:05.858Z,14.11
2023-03-27T15:19:36.348Z,14.18
2023-03-27T15:21:55.746Z,14.13
2023-03-27T15:24:28.297Z,14.10
2023-03-27T15:25:46.024Z,13.96
2023-03-27T15:26:51.840Z,13.94
2023-03-27T15:27:57.636Z,13.92
2023-03-27T15:30:47.640Z,14.00
2023-03-27T15:31:53.123Z,13.85
2023-03-27T15:32:57.886Z,13.85
2023-03-27T15:35:17.551Z,13.95
2023-03-27T15:36:21.274Z,13.80
2023-03-27T15:37:26.019Z,13.78
2023-03-27T15:38:31.702Z,13.77
2023-03-27T15:39:35.264Z,13.77
2023-03-27T15:40:41.030Z,13.75
2023-03-27T15:41:43.329Z,13.74
2023-03-27T15:43:06.718Z,13.74
2023-03-27T15:44:12.695Z,13.72
2023-03-27T15:45:16.555Z,13.71
2023-03-27T15:46:20.670Z,13.70
2023-03-27T15:47:28.290Z,13.69
2023-03-27T15:48:35.709Z,13.68
2023-03-27T15:49:40.160Z,13.65
2023-03-27T15:51:00.380Z,13.62
2023-03-27T15:53:36.781Z,13.72
2023-03-27T15:54:42.698Z,13.57
2023-03-27T15:55:46.898Z,13.56
2023-03-27T15:56:53.527Z,13.56
2023-03-27T15:57:58.068Z,13.55
2023-03-27T16:00:14.105Z,13.64
2023-03-27T16:01:32.899Z,13.50
2023-03-27T16:02:36.540Z,13.49
2023-03-27T16:03:41.285Z,13.49
2023-03-27T16:04:52.365Z,13.48
2023-03-27T16:05:57.218Z,13.46
2023-03-27T16:08:36.971Z,13.53
2023-03-27T16:09:52.500Z,13.38
2023-03-27T16:10:54.860Z,13.38
2023-03-27T16:11:57.870Z,13.35
2023-03-27T16:13:02.228Z,13.36
2023-03-27T16:14:06.460Z,13.33
2023-03-27T16:16:36.400Z,13.42
2023-03-27T16:17:43.373Z,13.27
2023-03-27T16:18:46.628Z,13.27
2023-03-27T16:19:55.539Z,13.27
2023-03-27T16:21:13.334Z,13.24
2023-03-27T16:22:31.879Z,13.22
2023-03-27T16:23:34.555Z,13.20
2023-03-27T16:24:36.756Z,13.19
2023-03-27T16:25:38.973Z,13.18
2023-03-27T16:26:41.521Z,13.17
2023-03-27T16:27:47.049Z,13.15
2023-03-27T16:28:49.478Z,13.11
2023-03-27T16:29:52.035Z,13.08
2023-03-27T16:30:54.359Z,13.08
2023-03-27T16:31:56.617Z,13.07
2023-03-27T16:32:59.191Z,13.07
2023-03-27T16:34:04.482Z,13.07
2023-03-27T16:35:08.131Z,13.06
2023-03-27T16:37:25.947Z,13.14
2023-03-27T16:38:28.591Z,13.01
2023-03-27T16:39:30.832Z,13.01
2023-03-27T16:40:33.772Z,13.02
2023-03-27T16:41:36.378Z,13.01
2023-03-27T16:42:40.636Z,13.01
2023-03-27T16:43:44.333Z,13.01
2023-03-27T16:44:46.501Z,12.99
2023-03-27T16:45:49.698Z,12.98
2023-03-27T16:46:52.062Z,12.99
2023-03-27T16:47:54.866Z,12.96
2023-03-27T16:48:57.867Z,12.97